Time;durP1;ratioP1;P1;durP2;ratioP2;P2;SDS_P1;SDS_P2;PMS_P1;PMS_P2;Temp;Humidity;BMP_temperature;BMP_pressure;BME280_temperature;BME280_humidity;BME280_pressure;Samples;Min_cycle;Max_cycle;Signal;HPM_P1;HPM_P2
2021/10/30 00:00:09;;;;;;;11.90;7.07;;;9.40;99.90;;;8.55;82.95;61845.38;5072397;28;20086;-69
2021/10/30 00:02:36;;;;;;;12.55;6.82;;;9.40;99.90;;;8.54;83.84;61843.13;5089411;28;20136;-70
2021/10/30 00:05:09;;;;;;;12.15;7.60;;;9.40;99.90;;;8.51;84.43;61840.16;5090347;28;20052;-70
2021/10/30 00:07:41;;;;;;;11.88;6.93;;;9.30;99.90;;;8.50;83.76;61838.91;5076034;28;20570;-70
2021/10/30 00:10:12;;;;;;;14.13;6.53;;;9.30;99.90;;;8.48;84.18;61837.88;5098251;28;20063;-70
2021/10/30 00:12:40;;;;;;;10.98;5.93;;;9.30;99.90;;;8.48;83.30;61838.03;5077115;28;20036;-70
2021/10/30 00:15:09;;;;;;;12.63;6.32;;;9.40;99.90;;;8.47;83.45;61836.69;5098376;28;20067;-71
2021/10/30 00:17:36;;;;;;;15.70;6.97;;;9.30;99.90;;;8.45;85.00;61834.91;5106457;28;20048;-70
2021/10/30 00:20:04;;;;;;;14.52;6.88;;;9.40;99.90;;;8.44;85.29;61833.28;5100608;28;20087;-70
2021/10/30 00:22:32;;;;;;;13.55;6.80;;;9.40;99.90;;;8.42;85.62;61831.69;5091395;28;20105;-70
2021/10/30 00:24:59;;;;;;;12.00;6.03;;;9.40;99.90;;;8.41;85.20;61830.13;5084037;28;20090;-70
2021/10/30 00:27:26;;;;;;;12.55;6.53;;;9.30;99.90;;;8.39;85.23;61828.47;5098336;28;20178;-70
2021/10/30 00:29:53;;;;;;;13.25;6.90;;;9.30;99.90;;;8.40;82.88;61829.41;5098679;28;20113;-70
2021/10/30 00:32:20;;;;;;;13.20;7.00;;;9.40;99.90;;;8.42;82.24;61830.94;5092453;28;20048;-70
2021/10/30 00:34:47;;;;;;;12.27;5.90;;;9.50;99.90;;;8.42;82.53;61831.34;5099039;28;20143;-70
2021/10/30 00:37:14;;;;;;;9.73;6.13;;;9.50;99.90;;;8.43;82.13;61832.69;5080554;28;20077;-70
2021/10/30 00:39:41;;;;;;;12.75;6.30;;;9.60;99.90;;;8.44;82.44;61833.53;5080872;28;20144;-70
2021/10/30 00:42:08;;;;;;;11.45;6.63;;;9.50;99.90;;;8.44;83.32;61833.25;5097208;28;20075;-70
2021/10/30 00:44:35;;;;;;;11.60;7.70;;;9.50;99.90;;;8.43;84.45;61831.97;5096929;28;20101;-70
2021/10/30 00:47:02;;;;;;;13.15;7.03;;;9.40;99.90;;;8.41;85.03;61830.06;5075774;28;20128;-70
2021/10/30 00:49:31;;;;;;;14.77;8.23;;;9.40;99.90;;;8.38;86.27;61826.63;5096344;28;20067;-70
2021/10/30 00:52:00;;;;;;;12.65;7.28;;;9.30;99.90;;;8.35;86.81;61823.47;5089197;28;20122;-70
2021/10/30 00:54:27;;;;;;;12.52;7.03;;;9.20;99.90;;;8.33;86.83;61820.75;5074113;28;20574;-70
2021/10/30 00:56:59;;;;;;;15.30;7.50;;;9.20;99.90;;;8.31;86.34;61818.56;5066942;28;20058;-70
2021/10/30 00:59:26;;;;;;;13.85;7.97;;;9.10;99.90;;;8.28;87.07;61815.53;5082986;28;20075;-70
2021/10/30 01:01:53;;;;;;;13.68;8.68;;;9.10;99.90;;;8.24;87.62;61811.47;5057794;28;20051;-70
2021/10/30 01:04:21;;;;;;;13.30;8.30;;;9.00;99.90;;;8.20;87.84;61806.94;5080219;28;20064;-70
2021/10/30 01:06:52;;;;;;;17.75;9.20;;;8.90;99.90;;;8.15;89.11;61801.66;5059496;28;20090;-70
2021/10/30 01:09:20;;;;;;;19.95;9.20;;;8.80;99.90;;;8.09;89.55;61796.06;5083525;28;20539;-70
2021/10/30 01:11:48;;;;;;;14.30;8.23;;;8.70;99.90;;;8.04;89.98;61791.41;5078184;28;20070;-70
2021/10/30 01:14:15;;;;;;;13.90;7.90;;;8.60;99.90;;;8.01;88.92;61787.56;5076848;28;20060;-70
2021/10/30 01:16:56;;;;;;;13.85;6.88;;;8.50;99.90;;;7.97;88.60;61784.00;5069458;28;20533;-70
2021/10/30 01:19:24;;;;;;;13.13;7.28;;;8.40;99.90;;;7.95;88.35;61780.84;5054074;28;20040;-70
2021/10/30 01:21:53;;;;;;;12.90;7.38;;;8.50;99.90;;;7.92;88.71;61777.91;5099203;28;20066;-70
2021/10/30 01:24:21;;;;;;;13.23;8.07;;;8.50;99.90;;;7.87;90.50;61773.16;5075904;28;20050;-70
2021/10/30 01:26:49;;;;;;;13.55;7.80;;;8.40;99.90;;;7.83;90.17;61769.06;5083220;28;20083;-70
2021/10/30 01:29:16;;;;;;;13.07;7.70;;;8.40;99.90;;;7.79;90.36;61765.28;5087944;28;20127;-70
2021/10/30 01:31:43;;;;;;;12.68;6.80;;;8.30;99.90;;;7.75;90.10;61760.69;5075925;28;20040;-70
2021/10/30 01:34:10;;;;;;;11.35;6.90;;;8.30;99.90;;;7.70;90.58;61755.69;5080319;28;20528;-70
2021/10/30 01:36:38;;;;;;;12.27;7.55;;;8.20;99.90;;;7.64;91.17;61750.13;5087252;28;20214;-70
2021/10/30 01:39:07;;;;;;;16.65;7.18;;;8.10;99.90;;;7.59;91.13;61744.50;5082551;28;20138;-70
2021/10/30 01:41:35;;;;;;;12.05;7.53;;;8.00;99.90;;;7.54;91.61;61739.63;5080694;28;20044;-70
2021/10/30 01:44:04;;;;;;;12.45;7.40;;;7.90;99.90;;;7.50;91.93;61734.72;5054458;28;20135;-70
2021/10/30 01:46:32;;;;;;;14.55;6.93;;;7.90;99.90;;;7.46;91.61;61730.22;5060506;28;20072;-70
2021/10/30 01:49:00;;;;;;;13.95;7.60;;;7.90;99.90;;;7.42;92.07;61725.84;5086010;28;20040;-70
2021/10/30 01:51:27;;;;;;;12.25;7.18;;;7.90;99.90;;;7.38;92.39;61721.50;5081428;28;20044;-70
2021/10/30 01:53:55;;;;;;;15.27;8.48;;;7.80;99.90;;;7.33;93.22;61716.31;5083735;28;20053;-70
2021/10/30 01:56:22;;;;;;;12.10;7.10;;;7.70;99.90;;;7.29;92.49;61712.28;5083541;28;20093;-70
2021/10/30 01:58:49;;;;;;;13.90;7.22;;;7.70;99.90;;;7.25;91.66;61708.44;5079499;28;20083;-70
2021/10/30 02:01:16;;;;;;;16.98;7.78;;;7.80;99.90;;;7.20;93.42;61703.69;5059253;28;20083;-69
2021/10/30 02:03:44;;;;;;;14.75;7.55;;;7.70;99.90;;;7.17;93.31;61700.31;5086568;28;20048;-70
2021/10/30 02:06:10;;;;;;;12.70;7.20;;;7.70;99.90;;;7.14;92.32;61697.06;5089791;28;20576;-70
2021/10/30 02:08:37;;;;;;;13.73;7.53;;;7.80;99.90;;;7.10;92.80;61692.97;5080919;28;20083;-70
2021/10/30 02:11:04;;;;;;;15.80;8.57;;;7.80;99.90;;;7.04;95.77;61686.38;5074717;28;20436;-70
2021/10/30 02:13:32;;;;;;;14.75;7.93;;;7.70;99.90;;;6.97;96.83;61680.03;5090241;28;20127;-70
2021/10/30 02:15:59;;;;;;;14.43;7.88;;;7.60;99.90;;;6.92;96.20;61675.03;5075708;28;20098;-70
2021/10/30 02:18:26;;;;;;;14.52;7.32;;;7.50;99.90;;;6.89;95.26;61671.75;5084931;28;20041;-70
2021/10/30 02:20:53;;;;;;;13.05;8.27;;;7.40;99.90;;;6.85;95.17;61667.66;5088017;28;20134;-70
2021/10/30 02:23:20;;;;;;;17.65;7.82;;;7.50;99.90;;;6.82;95.73;61663.69;5071253;28;20151;-70
2021/10/30 02:25:47;;;;;;;14.23;7.82;;;7.50;99.90;;;6.78;95.67;61660.03;5086236;28;20123;-70
2021/10/30 02:28:14;;;;;;;14.70;7.50;;;7.50;99.90;;;6.75;94.76;61656.94;5089685;28;20123;-70
2021/10/30 02:30:41;;;;;;;10.32;6.63;;;7.40;99.90;;;6.73;94.48;61654.03;5087776;28;20048;-70
2021/10/30 02:33:09;;;;;;;14.48;8.05;;;7.40;99.90;;;6.69;94.89;61651.09;5067202;28;20200;-69
2021/10/30 02:35:36;;;;;;;13.48;7.28;;;7.40;99.90;;;6.68;94.02;61649.03;5084993;28;20105;-70
2021/10/30 02:38:04;;;;;;;9.57;6.22;;;7.40;99.90;;;6.65;93.47;61646.72;5073537;28;20048;-70
2021/10/30 02:40:31;;;;;;;12.52;6.53;;;7.50;99.90;;;6.64;93.57;61645.22;5090300;28;20412;-70
2021/10/30 02:42:58;;;;;;;12.30;6.80;;;7.50;99.90;;;6.62;93.87;61643.63;5085085;28;20473;-71
2021/10/30 02:45:25;;;;;;;14.93;7.80;;;7.40;99.90;;;6.59;95.30;61639.75;5067069;28;20083;-70
2021/10/30 02:47:53;;;;;;;11.75;6.72;;;7.40;99.90;;;6.56;95.24;61636.94;5070975;28;20178;-70
2021/10/30 02:50:21;;;;;;;12.98;6.63;;;7.40;99.90;;;6.53;95.02;61633.94;5066507;28;20123;-70
2021/10/30 02:52:47;;;;;;;12.73;7.13;;;7.40;99.90;;;6.51;95.58;61631.53;5088345;28;20128;-69
2021/10/30 02:55:14;;;;;;;12.75;6.72;;;7.30;99.90;;;6.49;93.96;61630.00;5085803;28;20090;-70
2021/10/30 02:57:48;;;;;;;12.73;7.22;;;7.30;99.90;;;6.49;93.34;61629.69;5090617;28;20109;-70
2021/10/30 03:00:16;;;;;;;11.95;6.70;;;7.40;99.90;;;6.48;93.13;61629.03;5083833;28;20130;-70
2021/10/30 03:02:43;;;;;;;11.60;6.65;;;7.30;99.90;;;6.47;94.53;61627.81;5071006;28;20134;-70
2021/10/30 03:05:11;;;;;;;14.15;7.30;;;7.40;99.90;;;6.46;94.76;61627.06;5071103;28;20052;-70
2021/10/30 03:07:38;;;;;;;11.23;6.78;;;7.40;99.90;;;6.45;94.13;61625.94;5085489;28;20044;-70
2021/10/30 03:10:07;;;;;;;12.57;5.95;;;7.40;99.90;;;6.44;93.75;61625.41;5082382;28;20047;-70
2021/10/30 03:12:35;;;;;;;12.15;6.60;;;7.50;99.90;;;6.44;93.10;61625.16;5075543;28;20123;-70
2021/10/30 03:15:03;;;;;;;10.63;5.82;;;7.50;99.90;;;6.43;92.73;61624.16;5080882;28;20473;-70
2021/10/30 03:17:30;;;;;;;11.73;6.10;;;7.40;99.90;;;6.42;93.72;61622.84;5081782;28;20044;-70
2021/10/30 03:19:57;;;;;;;11.48;6.25;;;7.30;99.90;;;6.41;93.37;61622.47;5069456;28;20131;-70
2021/10/30 03:22:24;;;;;;;11.68;6.13;;;7.30;99.90;;;6.41;92.88;61622.06;5086536;28;20079;-70
2021/10/30 03:24:51;;;;;;;9.75;6.43;;;7.30;99.90;;;6.41;93.87;61622.06;5095760;28;20044;-70
2021/10/30 03:27:18;;;;;;;11.57;6.30;;;7.40;99.90;;;6.41;93.86;61622.03;5074940;28;20095;-69
2021/10/30 03:29:45;;;;;;;11.95;6.32;;;7.50;99.90;;;6.41;93.62;61622.00;5086322;28;20462;-69
2021/10/30 03:32:11;;;;;;;11.27;5.90;;;7.60;99.90;;;6.41;93.50;61622.25;5080427;28;20127;-70
2021/10/30 03:34:38;;;;;;;11.90;6.28;;;7.60;99.90;;;6.43;92.95;61623.56;5062338;28;20351;-70
2021/10/30 03:37:05;;;;;;;11.10;5.93;;;7.60;99.90;;;6.44;91.62;61625.09;5086065;28;20039;-70
2021/10/30 03:39:32;;;;;;;12.88;7.78;;;7.60;99.90;;;6.44;92.34;61625.53;5062186;28;20107;-70
2021/10/30 03:41:59;;;;;;;15.73;8.40;;;7.60;99.90;;;6.45;91.87;61626.63;5079735;28;20136;-70
2021/10/30 03:44:26;;;;;;;17.35;8.85;;;7.60;99.90;;;6.46;91.59;61627.88;5082836;28;20058;-70
2021/10/30 03:46:53;;;;;;;14.30;7.55;;;7.60;99.90;;;6.47;91.72;61629.16;5082627;28;20136;-69
2021/10/30 03:49:20;;;;;;;13.93;8.77;;;7.60;99.90;;;6.47;92.97;61628.78;5088127;28;20541;-70
2021/10/30 03:51:47;;;;;;;13.52;7.60;;;7.50;99.90;;;6.46;93.44;61628.38;5083410;28;20127;-69
2021/10/30 03:54:14;;;;;;;11.70;6.30;;;7.50;99.90;;;6.46;92.88;61628.34;5092059;28;20072;-70
2021/10/30 03:56:41;;;;;;;13.07;6.78;;;7.50;99.90;;;6.46;93.59;61628.66;5086353;28;20080;-70
2021/10/30 03:59:08;;;;;;;10.65;7.00;;;7.50;99.90;;;6.47;93.77;61628.78;5087212;28;20090;-70
2021/10/30 04:01:35;;;;;;;10.07;5.95;;;7.50;99.90;;;6.47;92.98;61629.25;5089524;28;20399;-70
2021/10/30 04:04:03;;;;;;;11.25;4.80;;;7.60;99.90;;;6.48;92.35;61630.03;5088232;28;20044;-70
2021/10/30 04:06:30;;;;;;;8.35;4.88;;;7.60;99.90;;;6.49;92.04;61630.97;5091133;28;20144;-70
2021/10/30 04:08:57;;;;;;;10.75;6.05;;;7.70;99.90;;;6.49;93.10;61630.97;5108702;28;20044;-70
2021/10/30 04:11:24;;;;;;;13.00;5.72;;;7.70;99.90;;;6.51;92.78;61631.91;5085087;28;20582;-70
2021/10/30 04:13:51;;;;;;;13.63;5.78;;;7.80;99.90;;;6.51;92.46;61631.91;5081104;28;21542;-70
2021/10/30 04:16:18;;;;;;;12.63;7.07;;;7.80;99.90;;;6.50;91.83;61631.63;5086369;28;21885;-70
2021/10/30 04:18:46;;;;;;;11.23;6.25;;;7.80;99.90;;;6.52;91.04;61633.41;5084491;28;20524;-70
2021/10/30 04:21:13;;;;;;;13.70;7.43;;;7.80;99.90;;;6.53;91.44;61634.09;5071055;28;20052;-70
2021/10/30 04:23:40;;;;;;;11.75;6.22;;;7.80;99.90;;;6.53;92.01;61634.34;5089499;28;20051;-70
2021/10/30 04:26:08;;;;;;;12.00;5.93;;;7.80;99.90;;;6.54;91.43;61635.22;5084597;28;20234;-70
2021/10/30 04:28:35;;;;;;;10.52;6.60;;;7.80;99.90;;;6.55;91.41;61636.38;5060852;28;20516;-70
2021/10/30 04:31:05;;;;;;;17.10;6.78;;;7.80;99.90;;;6.56;92.36;61637.63;5067762;28;20119;-70
2021/10/30 04:33:33;;;;;;;10.55;6.53;;;7.70;99.90;;;6.57;92.97;61639.00;5081115;28;20048;-70
2021/10/30 04:36:05;;;;;;;12.30;6.97;;;7.80;99.90;;;6.59;92.93;61640.13;5084790;28;20131;-70
2021/10/30 04:38:32;;;;;;;12.10;6.60;;;7.90;99.90;;;6.60;93.37;61641.06;5079368;28;20130;-70
2021/10/30 04:40:59;;;;;;;10.75;5.35;;;7.80;99.90;;;6.61;93.65;61642.25;5088094;28;20090;-70
2021/10/30 04:43:26;;;;;;;10.07;5.30;;;7.90;99.90;;;6.62;92.86;61642.66;5081851;28;20056;-70
2021/10/30 04:45:53;;;;;;;8.90;5.40;;;7.80;99.90;;;6.62;93.85;61643.47;5078900;28;20566;-70
2021/10/30 04:48:20;;;;;;;10.57;5.07;;;7.80;99.90;;;6.64;93.32;61645.13;5069102;28;20040;-70
2021/10/30 04:50:47;;;;;;;9.40;5.40;;;7.90;99.90;;;6.65;93.32;61646.56;5088353;28;20072;-70
2021/10/30 04:53:14;;;;;;;12.20;5.55;;;7.90;99.90;;;6.67;92.87;61648.91;5071910;28;20072;-70
2021/10/30 04:55:41;;;;;;;12.25;5.30;;;8.00;99.90;;;6.69;92.45;61650.66;5073553;28;20048;-70
2021/10/30 04:58:08;;;;;;;8.57;4.65;;;8.10;99.90;;;6.71;92.27;61653.00;5081608;28;20071;-70
2021/10/30 05:00:40;;;;;;;11.38;5.13;;;8.10;99.90;;;6.73;91.92;61654.59;5082544;28;20109;-70
2021/10/30 05:03:07;;;;;;;6.85;4.25;;;8.20;99.90;;;6.76;91.43;61657.84;5091038;28;20127;-70
2021/10/30 05:05:34;;;;;;;7.57;3.88;;;8.20;99.90;;;6.80;90.58;61661.78;5079414;28;20071;-70
2021/10/30 05:08:01;;;;;;;8.00;4.50;;;8.30;99.90;;;6.85;89.51;61666.22;5084069;28;20083;-70
2021/10/30 05:10:28;;;;;;;11.00;4.88;;;8.50;99.90;;;6.89;89.09;61670.84;5087451;28;20126;-70
2021/10/30 05:12:55;;;;;;;8.20;3.42;;;8.40;99.90;;;6.93;88.90;61675.47;5080090;28;20105;-70
2021/10/30 05:15:21;;;;;;;7.30;3.97;;;8.50;99.90;;;6.97;89.20;61678.97;5078291;28;20230;-70
2021/10/30 05:17:48;;;;;;;11.93;5.88;;;8.50;99.90;;;7.00;89.92;61681.94;5076701;28;20131;-70
2021/10/30 05:20:15;;;;;;;9.85;4.85;;;8.50;99.90;;;7.02;90.17;61684.25;5080264;28;20120;-70
2021/10/30 05:22:42;;;;;;;7.45;4.10;;;8.40;99.90;;;7.04;90.69;61685.56;5072635;28;20434;-70
2021/10/30 05:25:09;;;;;;;13.15;5.18;;;8.40;99.90;;;7.05;90.51;61687.63;5081736;28;20508;-70
2021/10/30 05:27:36;;;;;;;10.15;5.03;;;8.30;99.90;;;7.06;90.93;61688.19;5078275;28;20090;-70
2021/10/30 05:30:04;;;;;;;11.43;6.40;;;8.30;99.90;;;7.06;91.70;61688.19;5079896;28;20076;-70
2021/10/30 05:32:31;;;;;;;10.77;6.10;;;8.20;99.90;;;7.06;91.59;61688.19;5085951;28;20528;-70
2021/10/30 05:34:58;;;;;;;9.02;4.45;;;8.20;99.90;;;7.06;91.60;61688.59;5079431;28;20128;-70
2021/10/30 05:37:25;;;;;;;9.88;3.90;;;8.30;99.90;;;7.08;90.34;61691.06;5088940;28;20040;-70
2021/10/30 05:39:52;;;;;;;8.05;4.43;;;8.40;99.90;;;7.10;89.81;61692.59;5078262;28;20071;-70
2021/10/30 05:42:19;;;;;;;8.73;3.90;;;8.50;99.90;;;7.12;90.06;61694.41;5089947;28;20087;-70
2021/10/30 05:44:46;;;;;;;9.30;5.68;;;8.50;99.90;;;7.12;91.06;61695.09;5092114;28;20083;-70
2021/10/30 05:47:14;;;;;;;10.75;5.32;;;8.40;99.90;;;7.13;90.30;61695.91;5088018;28;20058;-70
2021/10/30 05:49:43;;;;;;;13.48;6.60;;;8.40;99.90;;;7.14;90.65;61696.84;5090603;28;20101;-70
2021/10/30 05:52:12;;;;;;;10.57;5.05;;;8.40;99.90;;;7.15;90.75;61697.13;5083670;28;20041;-70
2021/10/30 05:54:39;;;;;;;10.85;4.70;;;8.40;99.90;;;7.13;92.07;61695.47;5090319;28;20120;-70
2021/10/30 05:57:11;;;;;;;11.55;5.07;;;8.20;99.90;;;7.11;93.15;61692.88;5088726;28;20044;-70
2021/10/30 05:59:38;;;;;;;11.88;4.70;;;8.10;99.90;;;7.09;92.92;61690.53;5072165;28;20075;-70
2021/10/30 06:02:11;;;;;;;8.55;4.80;;;8.00;99.90;;;7.07;92.96;61688.34;5093206;28;20072;-70
2021/10/30 06:04:39;;;;;;;10.48;5.45;;;7.90;99.90;;;7.04;93.12;61685.75;5069442;28;20048;-70
2021/10/30 06:07:07;;;;;;;7.97;4.75;;;7.80;99.90;;;7.02;93.19;61683.75;5093654;28;20466;-69
2021/10/30 06:09:35;;;;;;;8.90;4.57;;;7.80;99.90;;;7.01;92.46;61682.41;5059480;28;20054;-69
2021/10/30 06:12:05;;;;;;;10.93;5.85;;;7.90;99.90;;;7.00;92.03;61681.31;5097449;28;20083;-70
2021/10/30 06:14:46;;;;;;;8.50;5.55;;;7.90;99.90;;;6.98;92.37;61679.69;5075689;28;20052;-70
2021/10/30 06:17:16;;;;;;;8.45;5.20;;;7.90;99.90;;;6.96;92.92;61677.50;5074250;28;20553;-70
2021/10/30 06:19:44;;;;;;;9.43;4.70;;;7.90;99.90;;;6.94;92.94;61675.59;5074248;28;20481;-70
2021/10/30 06:22:14;;;;;;;8.60;4.70;;;7.90;99.90;;;6.93;92.43;61673.81;5082935;28;20110;-70
2021/10/30 06:24:41;;;;;;;10.73;5.72;;;7.80;99.90;;;6.91;91.63;61672.38;5072026;28;20040;-70
2021/10/30 06:27:11;;;;;;;15.88;6.38;;;7.80;99.90;;;6.88;91.69;61669.66;5095784;28;20052;-70
2021/10/30 06:29:53;;;;;;;12.25;7.10;;;7.70;99.90;;;6.85;91.58;61666.69;5078006;28;20366;-71
2021/10/30 06:32:21;;;;;;;9.88;6.00;;;7.60;99.90;;;6.82;91.78;61663.44;5050338;28;20051;-70
2021/10/30 06:34:48;;;;;;;11.00;5.90;;;7.60;99.90;;;6.80;91.16;61661.41;5070176;28;20104;-70
2021/10/30 06:37:15;;;;;;;13.10;6.05;;;7.60;99.90;;;6.78;91.10;61658.97;5076345;28;20052;-70
2021/10/30 06:39:42;;;;;;;11.25;6.32;;;7.60;99.90;;;6.75;90.99;61656.72;5058829;28;20051;-69
2021/10/30 06:42:09;;;;;;;11.05;6.53;;;7.50;99.90;;;6.72;91.40;61653.34;5095002;28;20052;-70
2021/10/30 06:44:44;;;;;;;12.02;6.72;;;7.40;99.90;;;6.69;91.38;61649.97;5080718;28;20451;-69
2021/10/30 06:47:13;;;;;;;9.93;6.68;;;7.50;99.90;;;6.65;91.67;61646.19;5066606;28;20048;-70
2021/10/30 06:49:41;;;;;;;15.32;6.95;;;7.40;99.90;;;6.61;92.03;61642.22;5091335;28;20099;-69
2021/10/30 06:52:09;;;;;;;11.68;7.40;;;7.30;99.90;;;6.57;92.09;61638.47;5096843;28;20447;-70
2021/10/30 06:54:37;;;;;;;14.10;7.90;;;7.20;99.90;;;6.54;92.28;61634.75;5079674;28;20067;-70
2021/10/30 06:57:07;;;;;;;10.85;6.72;;;7.20;99.90;;;6.51;92.81;61630.94;5088865;28;20174;-70
2021/10/30 06:59:35;;;;;;;10.43;7.32;;;7.20;99.90;;;6.47;92.72;61627.28;5085814;28;20112;-70
2021/10/30 07:02:05;;;;;;;14.15;7.15;;;7.20;99.90;;;6.44;92.55;61624.47;5087465;28;20055;-70
2021/10/30 07:04:33;;;;;;;11.43;6.90;;;7.20;99.90;;;6.42;92.24;61622.59;5062650;28;20116;-70
2021/10/30 07:07:01;;;;;;;10.73;6.57;;;7.30;99.90;;;6.40;92.43;61620.41;5085586;28;20366;-70
2021/10/30 07:09:27;;;;;;;16.23;8.82;;;7.30;99.90;;;6.38;92.33;61618.94;5085718;28;20127;-70
2021/10/30 07:11:54;;;;;;;13.32;8.57;;;7.30;99.90;;;6.37;92.69;61616.72;5082455;28;20127;-70
2021/10/30 07:14:41;;;;;;;14.35;8.20;;;7.30;99.90;;;6.35;92.32;61615.34;5085239;28;20040;-70
2021/10/30 07:17:08;;;;;;;15.30;10.18;;;7.30;99.90;;;6.34;93.03;61613.88;5083299;28;20121;-70
2021/10/30 07:19:35;;;;;;;14.82;8.88;;;7.20;99.90;;;6.32;93.38;61611.88;5061753;28;20071;-70
2021/10/30 07:22:02;;;;;;;13.18;9.20;;;7.20;99.90;;;6.30;93.74;61609.25;5073710;28;20576;-70
2021/10/30 07:24:29;;;;;;;16.80;10.52;;;7.10;99.90;;;6.27;94.57;61606.09;5066617;28;20128;-70
2021/10/30 07:26:56;;;;;;;16.08;10.68;;;7.10;99.90;;;6.25;94.41;61604.47;5065492;28;20102;-70
2021/10/30 07:29:23;;;;;;;13.50;9.00;;;7.20;99.90;;;6.25;93.71;61603.75;5081389;28;20076;-70
2021/10/30 07:31:50;;;;;;;15.90;9.38;;;7.40;99.90;;;6.24;93.55;61603.81;5081000;28;20052;-70
2021/10/30 07:34:17;;;;;;;16.00;9.95;;;7.40;99.90;;;6.25;93.15;61604.06;5084686;28;20082;-70
2021/10/30 07:36:44;;;;;;;18.83;9.50;;;7.40;99.90;;;6.25;92.72;61605.06;5088240;28;20067;-70
2021/10/30 07:39:11;;;;;;;15.05;9.65;;;7.60;99.90;;;6.26;92.61;61605.88;5087088;28;20052;-70
2021/10/30 07:41:38;;;;;;;16.90;10.15;;;7.60;99.90;;;6.27;92.18;61606.91;5068107;28;20055;-69
2021/10/30 07:44:05;;;;;;;15.57;10.65;;;7.70;99.90;;;6.29;92.05;61608.44;5079551;28;20131;-69
2021/10/30 07:46:32;;;;;;;15.20;10.15;;;7.70;99.90;;;6.30;91.89;61610.56;5090427;28;20181;-70
2021/10/30 07:49:00;;;;;;;21.17;11.52;;;7.70;99.90;;;6.32;91.96;61611.75;5086793;28;20561;-69
2021/10/30 07:51:27;;;;;;;15.10;9.35;;;7.80;99.90;;;6.34;92.05;61613.91;5086747;28;20546;-69
2021/10/30 07:53:54;;;;;;;13.73;8.98;;;7.80;99.90;;;6.35;91.47;61615.84;5086026;28;20494;-69
2021/10/30 07:56:21;;;;;;;13.18;9.43;;;7.80;99.90;;;6.36;92.31;61616.53;5066763;28;20083;-69
2021/10/30 07:58:48;;;;;;;16.88;10.20;;;7.70;99.90;;;6.36;92.95;61616.97;5074563;28;20117;-69
2021/10/30 08:01:18;;;;;;;15.63;9.40;;;7.70;99.90;;;6.36;93.09;61617.09;5044873;28;20052;-69
2021/10/30 08:03:46;;;;;;;17.25;10.60;;;7.70;99.90;;;6.37;93.50;61617.38;5087898;28;20511;-70
2021/10/30 08:06:14;;;;;;;15.07;9.75;;;7.60;99.90;;;6.37;93.06;61618.16;5051547;28;20049;-69
2021/10/30 08:08:41;;;;;;;24.30;10.52;;;7.70;99.90;;;6.38;92.98;61618.59;5036309;28;20132;-70
2021/10/30 08:11:08;;;;;;;15.02;9.48;;;7.70;99.90;;;6.38;92.70;61618.44;5054119;28;20436;-70
2021/10/30 08:13:36;;;;;;;14.00;9.57;;;7.70;99.90;;;6.38;93.46;61618.50;5053526;28;20117;-69
2021/10/30 08:16:03;;;;;;;15.25;9.13;;;7.70;99.90;;;6.39;93.69;61619.88;5070925;28;20165;-70
2021/10/30 08:18:30;;;;;;;12.30;7.97;;;7.70;99.90;;;6.41;92.54;61621.22;5089132;28;20109;-69
2021/10/30 08:20:57;;;;;;;14.85;9.15;;;7.80;99.90;;;6.43;92.31;61623.13;5089938;28;20044;-69
2021/10/30 08:23:25;;;;;;;12.93;8.63;;;7.80;99.90;;;6.45;92.54;61625.41;5068123;28;20424;-69
2021/10/30 08:25:52;;;;;;;12.20;7.78;;;7.90;99.90;;;6.48;90.95;61628.28;5091032;28;20130;-69
2021/10/30 08:28:19;;;;;;;11.35;7.20;;;8.00;99.90;;;6.51;92.66;61631.25;5069540;28;20077;-69
2021/10/30 08:30:46;;;;;;;13.85;8.82;;;8.10;99.90;;;6.51;92.78;61632.13;5071159;28;20218;-69
2021/10/30 08:33:13;;;;;;;12.85;8.07;;;8.10;99.90;;;6.53;92.54;61634.41;5087352;28;20051;-69
2021/10/30 08:35:41;;;;;;;14.68;8.77;;;8.20;99.90;;;6.57;91.96;61637.94;5077152;28;20135;-69
2021/10/30 08:38:09;;;;;;;15.35;10.05;;;8.20;99.90;;;6.59;92.09;61640.81;5073431;28;20044;-69
2021/10/30 08:40:39;;;;;;;16.95;11.48;;;8.30;99.90;;;6.61;93.30;61642.00;5072784;28;20048;-70
2021/10/30 08:43:16;;;;;;;17.85;10.95;;;8.30;99.90;;;6.62;95.01;61642.94;5076394;28;20048;-70
2021/10/30 08:45:43;;;;;;;21.60;12.50;;;8.20;99.90;;;6.62;95.55;61643.09;5089992;28;20052;-69
2021/10/30 08:48:10;;;;;;;19.20;11.38;;;8.30;99.90;;;6.62;96.58;61643.09;5069921;28;20516;-68
2021/10/30 08:50:37;;;;;;;19.63;11.45;;;8.20;99.90;;;6.62;97.07;61643.09;5072255;28;20068;-69
2021/10/30 08:53:05;;;;;;;16.92;10.98;;;8.20;99.90;;;6.63;96.96;61643.91;5078575;28;20394;-69
2021/10/30 08:55:32;;;;;;;19.52;11.00;;;8.20;99.90;;;6.63;97.89;61644.75;5084148;28;20060;-69
2021/10/30 08:58:10;;;;;;;16.95;9.95;;;8.20;99.90;;;6.63;97.76;61644.59;5098790;28;20116;-69
2021/10/30 09:00:44;;;;;;;20.75;11.77;;;8.10;99.90;;;6.62;98.90;61642.81;5090044;28;20122;-69
2021/10/30 09:03:14;;;;;;;18.85;11.15;;;8.00;99.90;;;6.60;99.36;61641.03;5063177;28;20071;-69
2021/10/30 09:05:44;;;;;;;19.85;11.80;;;7.90;99.90;;;6.59;99.93;61639.50;5080446;28;20081;-69
2021/10/30 09:08:13;;;;;;;21.50;12.70;;;7.90;99.90;;;6.58;100.00;61639.28;5063771;28;20418;-70
2021/10/30 09:10:48;;;;;;;24.45;13.38;;;7.90;99.90;;;6.58;99.91;61639.00;5076840;28;20155;-69
2021/10/30 09:13:19;;;;;;;20.55;12.13;;;7.90;99.90;;;6.58;99.56;61639.38;5085038;28;20137;-69
2021/10/30 09:15:51;;;;;;;18.42;11.30;;;7.90;99.90;;;6.60;98.72;61640.81;5072522;28;20091;-68
2021/10/30 09:18:33;;;;;;;24.25;13.20;;;8.00;99.90;;;6.63;98.33;61643.25;5090285;28;20496;-70
2021/10/30 09:21:03;;;;;;;31.58;15.07;;;8.10;99.90;;;6.66;98.55;61647.34;5083133;28;20097;-69
2021/10/30 09:24:07;;;;;;;21.45;12.95;;;8.30;99.90;;;6.68;98.17;61649.53;5087852;28;20072;-69
2021/10/30 09:26:35;;;;;;;28.05;17.75;;;8.40;99.90;;;6.69;98.75;61649.91;5066237;28;20078;-68
2021/10/30 09:29:09;;;;;;;28.35;16.67;;;8.40;99.90;;;6.72;99.44;61653.28;5072704;28;20052;-69
2021/10/30 09:31:36;;;;;;;20.52;13.40;;;8.50;99.90;;;6.75;97.40;61656.56;5086253;28;20189;-70
2021/10/30 09:34:07;;;;;;;23.40;13.75;;;8.40;99.90;;;6.78;97.21;61659.34;5070503;28;20488;-70
2021/10/30 09:36:40;;;;;;;24.73;12.80;;;8.50;99.90;;;6.82;96.91;61663.16;5086503;28;20055;-69
2021/10/30 09:39:09;;;;;;;;;;;8.60;99.90;;;6.85;96.04;61665.56;5079392;28;20135;-70
2021/10/30 09:41:38;;;;;;;19.88;12.07;;;8.60;99.90;;;6.88;97.02;61669.22;5070861;28;20381;-70
2021/10/30 09:44:09;;;;;;;18.42;12.63;;;8.70;99.90;;;6.93;95.81;61673.84;5058732;28;20082;-69
2021/10/30 09:46:44;;;;;;;20.45;12.35;;;8.70;99.90;;;6.98;96.07;61679.53;5082377;28;20056;-70
2021/10/30 09:49:17;;;;;;;21.15;13.13;;;8.80;99.90;;;7.02;96.24;61683.94;5079986;28;20120;-70
2021/10/30 09:51:49;;;;;;;21.27;13.77;;;8.90;99.90;;;7.05;97.43;61686.94;5088749;28;20150;-70
2021/10/30 09:54:44;;;;;;;21.83;13.23;;;9.00;99.90;;;7.06;98.49;61688.72;5088039;28;20089;-69
2021/10/30 09:57:26;;;;;;;19.00;12.05;;;9.00;99.90;;;7.08;98.76;61690.47;5075209;28;20487;-70
2021/10/30 09:59:55;;;;;;;23.02;15.40;;;9.00;99.90;;;7.09;99.66;61691.28;5054721;28;20060;-69
2021/10/30 10:02:22;;;;;;;18.05;12.40;;;9.00;99.90;;;7.10;100.00;61692.97;5082384;28;20080;-70
2021/10/30 10:04:51;;;;;;;21.75;12.85;;;9.00;99.90;;;7.10;100.00;61692.13;5058294;28;20436;-69
2021/10/30 10:07:26;;;;;;;20.75;12.43;;;8.90;99.90;;;7.09;100.00;61691.56;5076149;28;20151;-69
2021/10/30 10:09:54;;;;;;;19.92;12.85;;;8.80;99.90;;;7.08;100.00;61690.59;5085094;28;20050;-69
2021/10/30 10:12:21;;;;;;;20.20;12.95;;;8.80;99.90;;;7.08;100.00;61690.31;5081504;28;20040;-69
2021/10/30 10:14:49;;;;;;;20.73;12.27;;;8.70;99.90;;;7.08;100.00;61690.09;5063775;28;20136;-69
2021/10/30 10:17:16;;;;;;;23.05;12.63;;;8.80;99.90;;;7.08;100.00;61690.38;5056868;28;20086;-69
2021/10/30 10:19:44;;;;;;;21.00;14.13;;;8.80;99.90;;;7.08;100.00;61690.78;5072073;28;20167;-69
2021/10/30 10:22:11;;;;;;;23.75;14.55;;;8.70;99.90;;;7.08;100.00;61690.09;5070335;28;21421;-69
2021/10/30 10:24:39;;;;;;;24.67;14.68;;;8.70;99.90;;;7.07;100.00;61689.38;5066025;28;20422;-69
2021/10/30 10:27:08;;;;;;;28.83;17.05;;;8.60;99.90;;;7.07;100.00;61689.66;5076358;28;20048;-70
2021/10/30 10:29:55;;;;;;;28.38;15.88;;;8.60;99.90;;;7.08;100.00;61690.47;5092180;28;20044;-69